Furniss, New York
Current Conditions -  °F | °C
As of 5:54 PM on Wednesday 26 Nov 2014 (Local Time) from KFZY Reporting Station
Light Snow Light Snow  
Wind Chill: 21°   Ceiling: 800
Heat Index: 30°   Visibility: 1.5mi
Dew Point: 26°   Wind: 12mph
Humidity: 85%   Direction: 30°NNE
Pressure: 30.07"   Gusts: NA
Location:  43.4571°N, 76.4163°W
Report Text: KFZY 262254Z AUTO 03010KT 1 1/2SM -SN BR BKN008 OVC017 M01/M03 A3007 RMK AO2 SLP188 P0001 T10111033
Loading
Personal Weather Stations






























Interactive Weather Map New forecast layout! Learn more

10-Day Weather Forecast

Advertisements
Track Severe Weather on mobile